createdAt,value
2019-03-19T00:00:29.859Z,3.63
2019-03-19T00:02:59.448Z,3.60
2019-03-19T00:05:28.531Z,3.40
2019-03-19T00:07:57.721Z,4.10
2019-03-19T00:10:26.819Z,3.00
2019-03-19T00:12:55.939Z,3.30
2019-03-19T00:15:25.021Z,2.87
2019-03-19T00:17:54.108Z,2.97
2019-03-19T00:20:23.212Z,2.70
2019-03-19T00:22:52.298Z,3.53
2019-03-19T00:25:29.333Z,3.43
2019-03-19T00:27:52.186Z,3.03
2019-03-19T00:30:22.357Z,3.30
2019-03-19T00:32:51.453Z,3.50
2019-03-19T00:35:20.628Z,3.10
2019-03-19T00:37:49.708Z,3.13
2019-03-19T00:40:18.919Z,3.70
2019-03-19T00:42:47.996Z,3.10
2019-03-19T00:45:17.114Z,3.40
2019-03-19T00:47:46.190Z,3.40
2019-03-19T00:50:15.368Z,3.10
2019-03-19T00:52:44.536Z,2.77
2019-03-19T00:55:13.695Z,2.87
2019-03-19T00:57:42.793Z,3.10
2019-03-19T01:00:12.085Z,3.20
2019-03-19T01:02:41.220Z,3.07
2019-03-19T01:05:10.310Z,3.00
2019-03-19T01:07:39.488Z,3.30
2019-03-19T01:10:09.075Z,3.33
2019-03-19T01:12:38.185Z,2.83
2019-03-19T01:15:07.646Z,2.80
2019-03-19T01:17:36.811Z,3.03
2019-03-19T01:20:06.352Z,3.30
2019-03-19T01:22:35.443Z,3.33
2019-03-19T01:25:04.964Z,2.90
2019-03-19T01:27:34.084Z,2.80
2019-03-19T01:30:03.264Z,3.17
2019-03-19T01:32:32.541Z,2.67
2019-03-19T01:35:01.644Z,2.33
2019-03-19T01:37:30.749Z,3.37
2019-03-19T01:39:59.884Z,3.47
2019-03-19T01:42:28.989Z,2.90
2019-03-19T01:44:58.088Z,3.47
2019-03-19T01:47:27.183Z,3.13
2019-03-19T01:49:56.276Z,3.03
2019-03-19T01:52:26.352Z,3.43
2019-03-19T01:54:55.440Z,3.07
2019-03-19T01:57:24.523Z,3.23
2019-03-19T01:59:53.632Z,3.57
2019-03-19T02:02:22.711Z,3.77
2019-03-19T02:04:51.821Z,3.57
2019-03-19T02:07:20.921Z,3.30
2019-03-19T02:09:50.057Z,3.57
2019-03-19T02:12:19.138Z,3.50
2019-03-19T02:14:48.232Z,3.30
2019-03-19T02:17:17.390Z,4.60
2019-03-19T02:19:46.489Z,3.70
2019-03-19T02:22:15.573Z,3.17
2019-03-19T02:24:44.975Z,3.20
2019-03-19T02:27:14.089Z,3.40
2019-03-19T02:29:43.206Z,3.53
2019-03-19T02:32:12.347Z,3.00
2019-03-19T02:34:41.535Z,3.90
2019-03-19T02:37:10.626Z,3.60
2019-03-19T02:39:39.762Z,3.67
2019-03-19T02:42:08.879Z,2.77
2019-03-19T02:44:37.992Z,3.20
2019-03-19T02:47:07.106Z,3.17
2019-03-19T02:49:36.192Z,3.23
2019-03-19T02:52:05.325Z,3.30
2019-03-19T02:54:34.418Z,3.80
2019-03-19T02:57:03.549Z,3.77
2019-03-19T02:59:32.643Z,2.60
2019-03-19T03:02:01.789Z,3.63
2019-03-19T03:04:30.872Z,3.03
2019-03-19T03:07:01.319Z,3.03
2019-03-19T03:09:30.450Z,3.20
2019-03-19T03:11:59.587Z,3.13
2019-03-19T03:14:29.014Z,3.73
2019-03-19T03:16:58.176Z,3.10
2019-03-19T03:19:27.260Z,3.63
2019-03-19T03:21:56.437Z,3.03
2019-03-19T03:24:25.537Z,2.70
2019-03-19T03:26:54.629Z,3.70
2019-03-19T03:29:24.830Z,3.90
2019-03-19T03:31:53.970Z,2.93
2019-03-19T03:34:23.135Z,2.83
2019-03-19T03:36:52.270Z,3.70
2019-03-19T03:39:21.385Z,3.53
2019-03-19T03:41:50.487Z,2.90
2019-03-19T03:44:19.732Z,2.80
2019-03-19T03:46:48.817Z,3.13
2019-03-19T03:49:17.928Z,4.23
2019-03-19T03:51:47.278Z,3.07
2019-03-19T03:54:16.708Z,3.20
2019-03-19T03:56:45.884Z,2.73
2019-03-19T03:59:15.065Z,3.23
2019-03-19T04:01:44.165Z,3.13
2019-03-19T04:04:13.354Z,3.00
2019-03-19T04:06:42.474Z,3.43
2019-03-19T04:09:11.561Z,3.00
2019-03-19T04:11:40.698Z,2.73
2019-03-19T04:14:09.784Z,2.80
2019-03-19T04:16:38.906Z,2.83
2019-03-19T04:19:07.974Z,3.10
2019-03-19T04:21:37.113Z,3.63
2019-03-19T04:24:06.235Z,2.87
2019-03-19T04:26:35.316Z,3.70
2019-03-19T04:29:04.450Z,3.00
2019-03-19T04:31:33.649Z,3.30
2019-03-19T04:34:03.724Z,3.97
2019-03-19T04:36:50.337Z,3.17
2019-03-19T04:39:19.492Z,2.90
2019-03-19T04:41:48.653Z,3.13
2019-03-19T04:44:18.120Z,2.60
2019-03-19T04:46:47.226Z,3.00
2019-03-19T04:49:16.374Z,3.53
2019-03-19T04:52:07.743Z,3.20
2019-03-19T04:54:36.843Z,2.93
2019-03-19T04:57:06.008Z,3.17
2019-03-19T04:59:35.141Z,2.83
2019-03-19T05:02:04.374Z,3.30
2019-03-19T05:04:33.479Z,3.10
2019-03-19T05:07:02.559Z,2.97
2019-03-19T05:09:31.704Z,3.70
2019-03-19T05:12:00.821Z,2.77
2019-03-19T05:14:29.900Z,2.43
2019-03-19T05:16:59.019Z,2.93
2019-03-19T05:19:28.117Z,2.50
2019-03-19T05:21:57.224Z,3.00
2019-03-19T05:24:26.328Z,3.27
2019-03-19T05:26:56.504Z,3.67
2019-03-19T05:29:25.584Z,2.67
2019-03-19T05:31:54.708Z,3.33
2019-03-19T05:34:24.127Z,2.83
2019-03-19T05:36:53.540Z,4.27
2019-03-19T05:39:22.641Z,3.40
2019-03-19T05:41:51.745Z,2.70
2019-03-19T05:44:21.112Z,3.03
2019-03-19T05:46:50.520Z,2.33
2019-03-19T05:49:19.606Z,2.40
2019-03-19T05:51:48.747Z,2.33
2019-03-19T05:54:17.846Z,3.70
2019-03-19T05:56:46.949Z,3.20
2019-03-19T05:59:18.543Z,2.57
2019-03-19T06:01:47.804Z,3.10
2019-03-19T06:04:16.920Z,3.93
2019-03-19T06:06:46.010Z,3.53
2019-03-19T06:09:15.115Z,3.40
2019-03-19T06:11:44.216Z,3.03
2019-03-19T06:14:13.665Z,4.20
2019-03-19T06:16:43.042Z,3.63
2019-03-19T06:19:12.148Z,2.57
2019-03-19T06:21:41.553Z,3.23
2019-03-19T06:24:11.003Z,3.00
2019-03-19T06:26:40.160Z,3.30
2019-03-19T06:29:09.285Z,3.27
2019-03-19T06:31:38.383Z,3.90
2019-03-19T06:34:07.489Z,3.00
2019-03-19T06:36:36.632Z,2.97
2019-03-19T06:39:07.020Z,2.80
2019-03-19T06:41:36.439Z,2.83
2019-03-19T06:44:05.545Z,2.80
2019-03-19T06:46:34.659Z,3.67
2019-03-19T06:49:04.268Z,3.33
2019-03-19T06:51:34.000Z,2.80
2019-03-19T06:54:03.452Z,5.07
2019-03-19T06:56:32.584Z,3.10
2019-03-19T06:59:01.731Z,2.70
2019-03-19T07:01:30.934Z,3.10
2019-03-19T07:04:00.061Z,2.50
2019-03-19T07:06:29.257Z,3.17
2019-03-19T07:08:58.423Z,2.87
2019-03-19T07:11:27.551Z,3.80
2019-03-19T07:13:56.664Z,3.00
2019-03-19T07:16:25.758Z,3.73
2019-03-19T07:18:54.857Z,4.00
2019-03-19T07:21:23.966Z,2.90
2019-03-19T07:23:53.343Z,3.17
2019-03-19T07:26:22.441Z,3.10
2019-03-19T07:28:51.565Z,2.83
2019-03-19T07:31:30.343Z,3.67
2019-03-19T07:33:51.540Z,3.37
2019-03-19T07:36:20.628Z,2.97
2019-03-19T07:38:49.740Z,2.87
2019-03-19T07:41:19.163Z,2.83
2019-03-19T07:43:48.278Z,3.70
2019-03-19T07:46:17.641Z,2.73
2019-03-19T07:48:46.737Z,3.80
2019-03-19T07:51:15.872Z,2.90
2019-03-19T07:53:44.990Z,4.37
2019-03-19T07:56:14.121Z,3.43
2019-03-19T07:58:45.573Z,3.43
2019-03-19T08:01:14.315Z,3.40
2019-03-19T08:03:43.412Z,3.63
2019-03-19T08:06:12.542Z,3.30
2019-03-19T08:08:41.718Z,4.83
2019-03-19T08:11:13.098Z,4.10
2019-03-19T08:13:42.006Z,2.57
2019-03-19T08:16:11.184Z,2.90
2019-03-19T08:18:40.325Z,2.83
2019-03-19T08:21:09.422Z,3.40
2019-03-19T08:23:38.547Z,2.97
2019-03-19T08:26:07.640Z,2.60
2019-03-19T08:28:36.768Z,3.33
2019-03-19T08:31:05.857Z,2.97
2019-03-19T08:33:34.984Z,3.70
2019-03-19T08:36:09.371Z,3.17
2019-03-19T08:38:35.103Z,2.67
2019-03-19T08:41:04.872Z,2.33
2019-03-19T08:43:34.502Z,2.70
2019-03-19T08:46:04.178Z,2.60
2019-03-19T08:48:34.729Z,2.60
2019-03-19T08:51:04.377Z,2.70
2019-03-19T08:53:35.073Z,3.47
2019-03-19T08:56:04.753Z,3.03
2019-03-19T08:58:34.684Z,3.90
2019-03-19T09:01:04.448Z,2.40
2019-03-19T09:03:34.079Z,3.20
2019-03-19T09:06:03.714Z,1.90
2019-03-19T09:08:33.330Z,3.03
2019-03-19T09:11:02.968Z,2.67
2019-03-19T09:13:32.576Z,2.23
2019-03-19T09:16:02.301Z,3.93
2019-03-19T09:18:31.902Z,2.10
2019-03-19T09:21:01.544Z,2.73
2019-03-19T09:23:33.236Z,2.67
2019-03-19T09:26:02.472Z,2.10
2019-03-19T09:28:32.096Z,2.70
2019-03-19T09:31:02.048Z,2.20
2019-03-19T09:33:31.958Z,2.37
2019-03-19T09:36:01.567Z,1.80
2019-03-19T09:38:31.180Z,2.93
2019-03-19T09:41:01.157Z,2.07
2019-03-19T09:43:30.814Z,2.00
2019-03-19T09:46:00.472Z,2.30
2019-03-19T09:48:30.436Z,2.23
2019-03-19T09:51:00.073Z,2.13
2019-03-19T09:53:29.696Z,2.07
2019-03-19T09:55:59.284Z,2.27
2019-03-19T09:58:29.070Z,2.33
2019-03-19T10:00:58.673Z,2.70
2019-03-19T10:03:28.285Z,1.83
2019-03-19T10:05:58.179Z,1.90
2019-03-19T10:08:27.822Z,2.10
2019-03-19T10:10:57.408Z,1.80
2019-03-19T10:13:27.081Z,1.97
2019-03-19T10:15:56.673Z,1.83
2019-03-19T10:18:26.288Z,2.13
2019-03-19T10:20:55.901Z,2.07
2019-03-19T10:23:34.020Z,1.70
2019-03-19T10:26:03.727Z,2.20
2019-03-19T10:28:33.399Z,2.60
2019-03-19T10:31:03.045Z,1.80
2019-03-19T10:33:32.667Z,1.80
2019-03-19T10:36:02.297Z,2.43
2019-03-19T10:38:32.215Z,1.80
2019-03-19T10:41:01.851Z,1.97
2019-03-19T10:43:31.440Z,1.90
2019-03-19T10:46:01.060Z,2.13
2019-03-19T10:48:30.708Z,2.07
2019-03-19T10:51:00.317Z,2.13
2019-03-19T10:53:29.932Z,2.43
2019-03-19T10:55:59.761Z,2.70
2019-03-19T10:58:29.431Z,2.37
2019-03-19T11:00:59.056Z,2.23
2019-03-19T11:03:28.800Z,2.17
2019-03-19T11:05:58.489Z,2.03
2019-03-19T11:08:28.200Z,2.37
2019-03-19T11:10:57.909Z,1.97
2019-03-19T11:13:27.515Z,2.33
2019-03-19T11:15:57.123Z,1.80
2019-03-19T11:18:26.749Z,2.23
2019-03-19T11:20:56.423Z,1.90
2019-03-19T11:23:26.038Z,2.80
2019-03-19T11:25:55.227Z,2.13
2019-03-19T11:28:24.709Z,1.73
2019-03-19T11:30:53.816Z,2.53
2019-03-19T11:33:22.993Z,2.20
2019-03-19T11:35:52.130Z,2.00
2019-03-19T11:38:21.300Z,1.97
2019-03-19T11:40:50.439Z,3.03
2019-03-19T11:43:19.581Z,1.63
2019-03-19T11:45:48.740Z,1.60
2019-03-19T11:48:17.851Z,2.07
2019-03-19T11:50:46.970Z,2.97
2019-03-19T11:53:16.113Z,1.90
2019-03-19T11:55:45.221Z,1.77
2019-03-19T11:58:14.368Z,2.07
2019-03-19T12:00:46.078Z,1.97
2019-03-19T12:03:16.617Z,1.97
2019-03-19T12:05:45.960Z,1.97
2019-03-19T12:08:15.136Z,1.70
2019-03-19T12:10:44.281Z,1.67
2019-03-19T12:13:13.420Z,2.00
2019-03-19T12:15:42.606Z,2.00
2019-03-19T12:18:11.859Z,1.60
2019-03-19T12:20:41.038Z,1.83
2019-03-19T12:23:10.291Z,2.37
2019-03-19T12:25:39.488Z,1.87
2019-03-19T12:28:08.632Z,2.00
2019-03-19T12:30:37.817Z,2.10
2019-03-19T12:33:06.965Z,1.80
2019-03-19T12:35:36.277Z,2.27
2019-03-19T12:38:05.500Z,2.10
2019-03-19T12:40:37.224Z,2.13
2019-03-19T12:43:05.756Z,2.30
2019-03-19T12:45:35.020Z,2.00
2019-03-19T12:48:04.432Z,2.00
2019-03-19T12:50:33.565Z,2.03
2019-03-19T12:53:02.765Z,2.00
2019-03-19T12:55:31.908Z,2.00
2019-03-19T12:58:01.512Z,3.00
2019-03-19T13:00:34.557Z,2.63
2019-03-19T13:03:01.729Z,2.03
2019-03-19T13:05:30.889Z,2.10
2019-03-19T13:08:00.110Z,1.70
2019-03-19T13:10:29.273Z,2.43
2019-03-19T13:12:58.418Z,2.20
2019-03-19T13:15:27.649Z,2.30
2019-03-19T13:17:56.896Z,1.70
2019-03-19T13:20:26.061Z,2.20
2019-03-19T13:22:55.363Z,2.17
2019-03-19T13:25:24.497Z,2.17
2019-03-19T13:27:53.681Z,2.10
2019-03-19T13:30:22.841Z,2.60
2019-03-19T13:32:51.953Z,2.00
2019-03-19T13:35:21.151Z,2.27
2019-03-19T13:37:50.418Z,2.00
2019-03-19T13:40:19.815Z,2.20
2019-03-19T13:42:49.433Z,2.63
2019-03-19T13:45:18.643Z,2.47
2019-03-19T13:48:07.154Z,2.43
2019-03-19T13:50:36.463Z,2.43
2019-03-19T13:53:05.675Z,1.70
2019-03-19T13:55:34.934Z,2.10
2019-03-19T13:58:04.540Z,2.53
2019-03-19T14:00:33.823Z,3.60
2019-03-19T14:03:02.983Z,2.10
2019-03-19T14:05:32.545Z,1.50
2019-03-19T14:08:02.094Z,2.20
2019-03-19T14:10:32.657Z,1.90
2019-03-19T14:13:01.884Z,2.20
2019-03-19T14:15:31.102Z,2.00
2019-03-19T14:18:00.282Z,2.00
2019-03-19T14:20:29.540Z,1.93
2019-03-19T14:22:58.791Z,2.17
2019-03-19T14:25:28.061Z,2.30
2019-03-19T14:27:57.169Z,2.30
2019-03-19T14:30:26.326Z,1.90
2019-03-19T14:32:55.586Z,2.60
2019-03-19T14:35:24.836Z,1.90
2019-03-19T14:37:54.051Z,2.07
2019-03-19T14:40:23.588Z,2.27
2019-03-19T14:42:52.872Z,1.70
2019-03-19T14:45:22.080Z,2.23
2019-03-19T14:47:51.288Z,2.30
2019-03-19T14:50:20.510Z,1.70
2019-03-19T14:53:12.204Z,2.10
2019-03-19T14:55:41.621Z,1.60
2019-03-19T14:58:11.375Z,2.73
2019-03-19T15:00:40.504Z,2.37
2019-03-19T15:03:09.613Z,2.00
2019-03-19T15:05:38.725Z,1.97
2019-03-19T15:08:07.854Z,2.20
2019-03-19T15:10:36.970Z,1.87
2019-03-19T15:13:06.116Z,2.23
2019-03-19T15:15:35.219Z,1.30
2019-03-19T15:18:04.948Z,2.47
2019-03-19T15:20:34.581Z,3.90
2019-03-19T15:23:03.780Z,1.80
2019-03-19T15:25:33.129Z,2.70
2019-03-19T15:28:02.239Z,1.90
2019-03-19T15:30:31.829Z,1.77
2019-03-19T15:33:00.927Z,2.03
2019-03-19T15:35:30.053Z,1.80
2019-03-19T15:37:59.161Z,1.73
2019-03-19T15:40:28.327Z,1.67
2019-03-19T15:42:57.664Z,1.77
2019-03-19T15:45:26.800Z,1.70
2019-03-19T15:47:55.939Z,2.00
2019-03-19T15:50:25.157Z,1.37
2019-03-19T15:52:55.358Z,1.50
2019-03-19T15:55:24.729Z,3.23
2019-03-19T15:57:53.864Z,1.93
2019-03-19T16:00:23.024Z,1.90
2019-03-19T16:02:52.148Z,1.97
2019-03-19T16:05:21.262Z,2.10
2019-03-19T16:07:50.374Z,2.20
2019-03-19T16:10:19.557Z,1.63
2019-03-19T16:12:48.697Z,2.13
2019-03-19T16:15:18.434Z,1.80
2019-03-19T16:17:47.560Z,1.40
2019-03-19T16:20:16.740Z,1.50
2019-03-19T16:22:45.961Z,1.30
2019-03-19T16:25:15.143Z,6.20
2019-03-19T16:27:44.288Z,1.83
2019-03-19T16:30:13.708Z,1.60
2019-03-19T16:32:42.811Z,2.53
2019-03-19T16:35:12.216Z,2.10
2019-03-19T16:37:41.508Z,1.40
2019-03-19T16:40:12.009Z,1.97
2019-03-19T16:42:41.135Z,1.90
2019-03-19T16:45:10.355Z,1.80
2019-03-19T16:47:40.560Z,2.20
2019-03-19T16:50:10.421Z,1.40
2019-03-19T16:52:39.568Z,1.67
2019-03-19T16:55:09.094Z,1.30
2019-03-19T16:57:38.255Z,1.77
2019-03-19T17:00:08.650Z,1.80
2019-03-19T17:02:37.777Z,1.50
2019-03-19T17:05:07.492Z,1.60
2019-03-19T17:07:36.617Z,1.97
2019-03-19T17:10:06.117Z,2.27
2019-03-19T17:12:35.245Z,2.07
2019-03-19T17:15:04.738Z,2.00
2019-03-19T17:17:33.965Z,2.40
2019-03-19T17:20:03.271Z,2.53
2019-03-19T17:22:32.409Z,2.40
2019-03-19T17:25:01.521Z,2.00
2019-03-19T17:27:30.936Z,2.23
2019-03-19T17:30:00.039Z,3.97
2019-03-19T17:32:29.192Z,3.77
2019-03-19T17:34:58.300Z,3.77
2019-03-19T17:37:27.415Z,2.73
2019-03-19T17:39:56.537Z,2.03
2019-03-19T17:42:25.668Z,2.53
2019-03-19T17:44:55.063Z,2.10
2019-03-19T17:47:24.201Z,2.40
2019-03-19T17:49:53.309Z,2.37
2019-03-19T17:52:22.425Z,2.23
2019-03-19T17:54:51.572Z,2.83
2019-03-19T17:57:20.736Z,2.13
2019-03-19T17:59:49.912Z,1.93
2019-03-19T18:02:23.838Z,2.73
2019-03-19T18:04:51.494Z,2.07
2019-03-19T18:07:20.925Z,3.10
2019-03-19T18:09:50.044Z,2.60
2019-03-19T18:12:19.229Z,2.40
2019-03-19T18:14:48.362Z,1.97
2019-03-19T18:17:17.816Z,7.53
2019-03-19T18:19:46.980Z,3.10
2019-03-19T18:22:16.112Z,2.23
2019-03-19T18:24:45.238Z,2.50
2019-03-19T18:27:14.448Z,2.10
2019-03-19T18:29:43.640Z,3.40
2019-03-19T18:32:12.793Z,2.90
2019-03-19T18:34:41.998Z,2.80
2019-03-19T18:37:11.132Z,2.33
2019-03-19T18:39:40.229Z,3.20
2019-03-19T18:42:09.362Z,2.80
2019-03-19T18:44:38.471Z,2.67
2019-03-19T18:47:07.629Z,3.17
2019-03-19T18:49:36.760Z,2.60
2019-03-19T18:52:05.920Z,3.80
2019-03-19T18:54:35.989Z,2.67
2019-03-19T18:57:05.111Z,4.10
2019-03-19T18:59:34.306Z,3.87
2019-03-19T19:02:03.469Z,3.80
2019-03-19T19:04:32.657Z,6.43
2019-03-19T19:07:02.298Z,3.20
2019-03-19T19:09:31.714Z,2.90
2019-03-19T19:12:00.909Z,3.70
2019-03-19T19:14:30.019Z,3.60
2019-03-19T19:16:59.171Z,2.97
2019-03-19T19:19:28.279Z,3.33
2019-03-19T19:21:57.640Z,3.47
2019-03-19T19:24:26.795Z,3.07
2019-03-19T19:26:57.348Z,2.80
2019-03-19T19:29:26.581Z,3.77
2019-03-19T19:31:58.990Z,2.60
2019-03-19T19:34:28.196Z,3.33
2019-03-19T19:37:16.581Z,4.03
2019-03-19T19:39:45.692Z,4.07
2019-03-19T19:42:14.821Z,3.80
2019-03-19T19:44:43.935Z,4.70
2019-03-19T19:47:13.042Z,4.40
2019-03-19T19:49:42.148Z,3.50
2019-03-19T19:52:11.601Z,3.27
2019-03-19T19:54:40.813Z,4.53
2019-03-19T19:57:09.940Z,3.60
2019-03-19T19:59:39.036Z,3.57
2019-03-19T20:02:08.176Z,3.93
2019-03-19T20:04:37.304Z,3.33
2019-03-19T20:07:06.442Z,2.70
2019-03-19T20:09:36.526Z,3.57
2019-03-19T20:12:05.666Z,7.27
2019-03-19T20:14:35.999Z,3.43
2019-03-19T20:17:05.137Z,4.00
2019-03-19T20:19:34.248Z,2.90
2019-03-19T20:22:03.353Z,3.80
2019-03-19T20:24:32.494Z,3.43
2019-03-19T20:27:01.655Z,3.70
2019-03-19T20:29:30.784Z,3.33
2019-03-19T20:31:59.930Z,3.67
2019-03-19T20:34:29.057Z,4.20
2019-03-19T20:36:58.236Z,3.90
2019-03-19T20:39:27.374Z,3.10
2019-03-19T20:41:56.488Z,2.93
2019-03-19T20:44:25.612Z,4.00
2019-03-19T20:46:54.735Z,4.10
2019-03-19T20:49:23.879Z,4.17
2019-03-19T20:51:53.281Z,3.27
2019-03-19T20:54:22.393Z,3.73
2019-03-19T20:56:51.525Z,2.53
2019-03-19T20:59:20.975Z,3.30
2019-03-19T21:01:50.094Z,3.60
2019-03-19T21:04:19.372Z,4.23
2019-03-19T21:06:48.740Z,3.33
2019-03-19T21:09:17.916Z,4.37
2019-03-19T21:11:47.501Z,3.90
2019-03-19T21:14:16.621Z,4.07
2019-03-19T21:16:45.757Z,3.77
2019-03-19T21:19:15.191Z,4.00
2019-03-19T21:21:44.320Z,3.97
2019-03-19T21:24:13.464Z,3.73
2019-03-19T21:26:43.663Z,3.80
2019-03-19T21:29:12.792Z,3.47
2019-03-19T21:31:43.324Z,3.80
2019-03-19T21:34:12.442Z,3.50
2019-03-19T21:36:41.901Z,3.80
2019-03-19T21:39:11.041Z,3.50
2019-03-19T21:41:40.172Z,3.83
2019-03-19T21:44:09.365Z,3.83
2019-03-19T21:46:38.499Z,3.87
2019-03-19T21:49:07.632Z,4.10
2019-03-19T21:51:36.772Z,4.10
2019-03-19T21:54:05.920Z,3.93
2019-03-19T21:56:35.109Z,4.73
2019-03-19T21:59:04.652Z,4.47
2019-03-19T22:01:33.833Z,4.10
2019-03-19T22:04:03.583Z,4.03
2019-03-19T22:06:32.876Z,4.17
2019-03-19T22:09:02.001Z,4.47
2019-03-19T22:11:32.716Z,4.50
2019-03-19T22:14:01.832Z,4.20
2019-03-19T22:16:30.936Z,3.97
2019-03-19T22:19:00.067Z,5.40
2019-03-19T22:21:29.257Z,4.80
2019-03-19T22:23:58.432Z,4.27
2019-03-19T22:26:27.547Z,4.37
2019-03-19T22:28:57.725Z,4.57
2019-03-19T22:31:26.826Z,4.47
2019-03-19T22:33:55.944Z,4.80
2019-03-19T22:36:25.050Z,4.50
2019-03-19T22:38:54.164Z,5.20
2019-03-19T22:41:23.260Z,4.53
2019-03-19T22:43:52.441Z,5.07
2019-03-19T22:46:22.153Z,5.00
2019-03-19T22:48:51.416Z,5.33
2019-03-19T22:51:20.534Z,4.80
2019-03-19T22:53:49.641Z,5.97
2019-03-19T22:56:18.766Z,5.80
2019-03-19T22:58:47.857Z,4.60
2019-03-19T23:01:17.387Z,5.10
2019-03-19T23:03:46.475Z,5.03
2019-03-19T23:06:15.596Z,5.43
2019-03-19T23:08:44.701Z,5.03
2019-03-19T23:11:13.834Z,6.90
2019-03-19T23:13:42.936Z,5.30
2019-03-19T23:16:12.047Z,5.60
2019-03-19T23:18:41.448Z,5.77
2019-03-19T23:21:10.867Z,4.30
2019-03-19T23:23:39.959Z,6.13
2019-03-19T23:26:09.112Z,5.53
2019-03-19T23:28:39.283Z,5.87
2019-03-19T23:31:08.457Z,5.30
2019-03-19T23:33:37.632Z,5.37
2019-03-19T23:36:07.717Z,5.00
2019-03-19T23:38:36.910Z,5.63
2019-03-19T23:41:05.994Z,5.47
2019-03-19T23:43:35.100Z,5.97
2019-03-19T23:46:04.192Z,5.07
2019-03-19T23:48:33.303Z,5.90
2019-03-19T23:51:02.405Z,5.53
2019-03-19T23:53:31.513Z,5.57
2019-03-19T23:56:00.596Z,5.20
2019-03-19T23:58:29.958Z,4.50
